sensor_id;sensor_type;location;lat;lon;timestamp;P1;durP1;ratioP1;P2;durP2;ratioP2
18152;SDS011;9202;51.578;7.734;2022-10-23T00:02:29;5.97;;;5.77;;
18152;SDS011;9202;51.578;7.734;2022-10-23T00:04:46;6.83;;;6.53;;
18152;SDS011;9202;51.578;7.734;2022-10-23T00:06:52;5.60;;;5.40;;
18152;SDS011;9202;51.578;7.734;2022-10-23T00:08:56;6.57;;;6.27;;
18152;SDS011;9202;51.578;7.734;2022-10-23T00:11:00;6.00;;;5.70;;
18152;SDS011;9202;51.578;7.734;2022-10-23T00:13:05;6.20;;;5.90;;
18152;SDS011;9202;51.578;7.734;2022-10-23T00:15:09;6.03;;;5.80;;
18152;SDS011;9202;51.578;7.734;2022-10-23T00:17:13;6.53;;;6.20;;
18152;SDS011;9202;51.578;7.734;2022-10-23T00:19:17;6.60;;;6.17;;
18152;SDS011;9202;51.578;7.734;2022-10-23T00:21:20;6.20;;;5.93;;
18152;SDS011;9202;51.578;7.734;2022-10-23T00:25:41;6.83;;;6.37;;
18152;SDS011;9202;51.578;7.734;2022-10-23T00:27:45;7.07;;;6.60;;
18152;SDS011;9202;51.578;7.734;2022-10-23T00:30:02;5.87;;;5.60;;
18152;SDS011;9202;51.578;7.734;2022-10-23T00:32:07;6.27;;;5.93;;
18152;SDS011;9202;51.578;7.734;2022-10-23T00:34:10;5.90;;;5.60;;
18152;SDS011;9202;51.578;7.734;2022-10-23T00:36:16;7.57;;;7.20;;
18152;SDS011;9202;51.578;7.734;2022-10-23T00:38:20;6.60;;;6.30;;
18152;SDS011;9202;51.578;7.734;2022-10-23T00:42:41;7.60;;;7.23;;
18152;SDS011;9202;51.578;7.734;2022-10-23T00:47:32;5.77;;;5.57;;
18152;SDS011;9202;51.578;7.734;2022-10-23T00:49:35;5.70;;;5.50;;
18152;SDS011;9202;51.578;7.734;2022-10-23T00:51:42;6.07;;;5.77;;
18152;SDS011;9202;51.578;7.734;2022-10-23T00:53:48;6.33;;;6.03;;
18152;SDS011;9202;51.578;7.734;2022-10-23T00:55:56;6.57;;;6.20;;
18152;SDS011;9202;51.578;7.734;2022-10-23T00:58:01;6.13;;;5.83;;
18152;SDS011;9202;51.578;7.734;2022-10-23T01:00:05;5.97;;;5.70;;
18152;SDS011;9202;51.578;7.734;2022-10-23T01:02:10;12.20;;;7.07;;
18152;SDS011;9202;51.578;7.734;2022-10-23T01:04:14;7.83;;;7.53;;
18152;SDS011;9202;51.578;7.734;2022-10-23T01:06:20;5.70;;;5.50;;
18152;SDS011;9202;51.578;7.734;2022-10-23T01:08:31;6.53;;;6.23;;
18152;SDS011;9202;51.578;7.734;2022-10-23T01:10:37;6.83;;;6.60;;
18152;SDS011;9202;51.578;7.734;2022-10-23T01:12:58;6.30;;;6.10;;
18152;SDS011;9202;51.578;7.734;2022-10-23T01:15:05;5.87;;;5.57;;
18152;SDS011;9202;51.578;7.734;2022-10-23T01:17:14;5.70;;;5.40;;
18152;SDS011;9202;51.578;7.734;2022-10-23T01:20:00;5.90;;;5.60;;
18152;SDS011;9202;51.578;7.734;2022-10-23T01:21:58;5.57;;;5.37;;
18152;SDS011;9202;51.578;7.734;2022-10-23T01:24:15;6.10;;;5.80;;
18152;SDS011;9202;51.578;7.734;2022-10-23T01:26:34;5.60;;;5.30;;
18152;SDS011;9202;51.578;7.734;2022-10-23T01:28:50;6.27;;;5.97;;
18152;SDS011;9202;51.578;7.734;2022-10-23T01:30:58;6.20;;;6.00;;
18152;SDS011;9202;51.578;7.734;2022-10-23T01:33:05;6.67;;;6.23;;
18152;SDS011;9202;51.578;7.734;2022-10-23T01:35:15;5.70;;;5.50;;
18152;SDS011;9202;51.578;7.734;2022-10-23T01:37:33;6.20;;;5.80;;
18152;SDS011;9202;51.578;7.734;2022-10-23T01:39:33;5.40;;;5.20;;
18152;SDS011;9202;51.578;7.734;2022-10-23T01:41:39;5.80;;;5.50;;
18152;SDS011;9202;51.578;7.734;2022-10-23T01:43:48;7.17;;;6.87;;
18152;SDS011;9202;51.578;7.734;2022-10-23T01:46:09;5.80;;;5.50;;
18152;SDS011;9202;51.578;7.734;2022-10-23T01:48:18;5.60;;;5.40;;
18152;SDS011;9202;51.578;7.734;2022-10-23T01:50:34;6.23;;;5.93;;
18152;SDS011;9202;51.578;7.734;2022-10-23T01:52:40;5.90;;;5.60;;
18152;SDS011;9202;51.578;7.734;2022-10-23T01:54:44;5.87;;;5.40;;
18152;SDS011;9202;51.578;7.734;2022-10-23T01:56:50;6.73;;;6.50;;
18152;SDS011;9202;51.578;7.734;2022-10-23T01:58:58;5.97;;;5.77;;
18152;SDS011;9202;51.578;7.734;2022-10-23T02:01:06;5.77;;;5.57;;
18152;SDS011;9202;51.578;7.734;2022-10-23T02:03:14;5.63;;;5.43;;
18152;SDS011;9202;51.578;7.734;2022-10-23T02:05:20;6.03;;;5.70;;
18152;SDS011;9202;51.578;7.734;2022-10-23T02:07:25;5.17;;;4.97;;
18152;SDS011;9202;51.578;7.734;2022-10-23T02:09:28;5.60;;;5.40;;
18152;SDS011;9202;51.578;7.734;2022-10-23T02:11:49;6.20;;;5.90;;
18152;SDS011;9202;51.578;7.734;2022-10-23T02:13:57;5.67;;;5.47;;
18152;SDS011;9202;51.578;7.734;2022-10-23T02:16:04;5.53;;;5.33;;
18152;SDS011;9202;51.578;7.734;2022-10-23T02:18:12;5.50;;;5.30;;
18152;SDS011;9202;51.578;7.734;2022-10-23T02:20:20;6.30;;;6.00;;
18152;SDS011;9202;51.578;7.734;2022-10-23T02:22:26;5.73;;;5.53;;
18152;SDS011;9202;51.578;7.734;2022-10-23T02:24:33;5.83;;;5.60;;
18152;SDS011;9202;51.578;7.734;2022-10-23T02:26:51;6.87;;;6.57;;
18152;SDS011;9202;51.578;7.734;2022-10-23T02:28:58;5.80;;;5.50;;
18152;SDS011;9202;51.578;7.734;2022-10-23T02:31:06;6.60;;;6.23;;
18152;SDS011;9202;51.578;7.734;2022-10-23T02:33:12;14.17;;;7.50;;
18152;SDS011;9202;51.578;7.734;2022-10-23T02:35:18;7.23;;;6.90;;
18152;SDS011;9202;51.578;7.734;2022-10-23T02:37:23;6.97;;;6.63;;
18152;SDS011;9202;51.578;7.734;2022-10-23T02:39:27;5.97;;;5.67;;
18152;SDS011;9202;51.578;7.734;2022-10-23T02:41:34;11.93;;;7.70;;
18152;SDS011;9202;51.578;7.734;2022-10-23T02:43:44;6.93;;;6.63;;
18152;SDS011;9202;51.578;7.734;2022-10-23T02:45:52;5.83;;;5.63;;
18152;SDS011;9202;51.578;7.734;2022-10-23T02:47:59;5.60;;;5.40;;
18152;SDS011;9202;51.578;7.734;2022-10-23T02:50:08;5.53;;;5.33;;
18152;SDS011;9202;51.578;7.734;2022-10-23T02:52:18;5.77;;;5.47;;
18152;SDS011;9202;51.578;7.734;2022-10-23T02:54:30;6.37;;;6.07;;
18152;SDS011;9202;51.578;7.734;2022-10-23T02:56:58;5.80;;;5.60;;
18152;SDS011;9202;51.578;7.734;2022-10-23T02:59:05;6.00;;;5.70;;
18152;SDS011;9202;51.578;7.734;2022-10-23T03:01:12;5.43;;;5.23;;
18152;SDS011;9202;51.578;7.734;2022-10-23T03:03:19;5.97;;;5.70;;
18152;SDS011;9202;51.578;7.734;2022-10-23T03:05:26;6.73;;;6.50;;
18152;SDS011;9202;51.578;7.734;2022-10-23T03:07:33;5.00;;;4.80;;
18152;SDS011;9202;51.578;7.734;2022-10-23T03:09:52;5.53;;;5.33;;
18152;SDS011;9202;51.578;7.734;2022-10-23T03:11:56;6.20;;;5.73;;
18152;SDS011;9202;51.578;7.734;2022-10-23T03:13:59;5.50;;;5.30;;
18152;SDS011;9202;51.578;7.734;2022-10-23T03:16:04;6.27;;;6.07;;
18152;SDS011;9202;51.578;7.734;2022-10-23T03:18:08;5.30;;;5.10;;
18152;SDS011;9202;51.578;7.734;2022-10-23T03:20:12;8.37;;;6.80;;
18152;SDS011;9202;51.578;7.734;2022-10-23T03:22:16;6.10;;;5.47;;
18152;SDS011;9202;51.578;7.734;2022-10-23T03:24:22;12.13;;;6.33;;
18152;SDS011;9202;51.578;7.734;2022-10-23T03:26:26;5.70;;;5.50;;
18152;SDS011;9202;51.578;7.734;2022-10-23T03:28:30;5.17;;;4.97;;
18152;SDS011;9202;51.578;7.734;2022-10-23T03:30:34;5.87;;;5.47;;
18152;SDS011;9202;51.578;7.734;2022-10-23T03:32:37;5.70;;;5.47;;
18152;SDS011;9202;51.578;7.734;2022-10-23T03:34:55;6.23;;;6.00;;
18152;SDS011;9202;51.578;7.734;2022-10-23T03:36:58;5.33;;;5.13;;
18152;SDS011;9202;51.578;7.734;2022-10-23T03:39:02;10.43;;;7.07;;
18152;SDS011;9202;51.578;7.734;2022-10-23T03:41:06;6.73;;;6.43;;
18152;SDS011;9202;51.578;7.734;2022-10-23T03:43:10;5.83;;;5.50;;
18152;SDS011;9202;51.578;7.734;2022-10-23T03:45:15;5.60;;;5.40;;
18152;SDS011;9202;51.578;7.734;2022-10-23T03:47:19;5.80;;;5.43;;
18152;SDS011;9202;51.578;7.734;2022-10-23T03:49:22;6.87;;;6.47;;
18152;SDS011;9202;51.578;7.734;2022-10-23T03:51:26;5.27;;;5.07;;
18152;SDS011;9202;51.578;7.734;2022-10-23T03:53:31;6.07;;;5.83;;
18152;SDS011;9202;51.578;7.734;2022-10-23T03:55:51;5.17;;;4.97;;
18152;SDS011;9202;51.578;7.734;2022-10-23T03:57:54;5.50;;;5.30;;
18152;SDS011;9202;51.578;7.734;2022-10-23T03:59:58;5.30;;;5.10;;
18152;SDS011;9202;51.578;7.734;2022-10-23T04:02:03;6.00;;;5.80;;
18152;SDS011;9202;51.578;7.734;2022-10-23T04:04:07;5.73;;;5.53;;
18152;SDS011;9202;51.578;7.734;2022-10-23T04:06:10;5.37;;;5.17;;
18152;SDS011;9202;51.578;7.734;2022-10-23T04:08:14;5.37;;;5.17;;
18152;SDS011;9202;51.578;7.734;2022-10-23T04:10:21;6.37;;;5.97;;
18152;SDS011;9202;51.578;7.734;2022-10-23T04:12:25;5.37;;;5.17;;
18152;SDS011;9202;51.578;7.734;2022-10-23T04:14:28;5.30;;;5.10;;
18152;SDS011;9202;51.578;7.734;2022-10-23T04:16:32;6.07;;;5.40;;
18152;SDS011;9202;51.578;7.734;2022-10-23T04:18:35;6.33;;;6.10;;
18152;SDS011;9202;51.578;7.734;2022-10-23T04:20:43;5.77;;;5.43;;
18152;SDS011;9202;51.578;7.734;2022-10-23T04:22:48;5.67;;;5.20;;
18152;SDS011;9202;51.578;7.734;2022-10-23T04:24:51;5.10;;;4.90;;
18152;SDS011;9202;51.578;7.734;2022-10-23T04:26:55;6.10;;;5.70;;
18152;SDS011;9202;51.578;7.734;2022-10-23T04:29:00;5.00;;;4.80;;
18152;SDS011;9202;51.578;7.734;2022-10-23T04:31:04;5.10;;;4.90;;
18152;SDS011;9202;51.578;7.734;2022-10-23T04:33:08;15.77;;;6.43;;
18152;SDS011;9202;51.578;7.734;2022-10-23T04:35:11;5.10;;;4.90;;
18152;SDS011;9202;51.578;7.734;2022-10-23T04:37:15;5.50;;;5.20;;
18152;SDS011;9202;51.578;7.734;2022-10-23T04:39:19;5.20;;;5.00;;
18152;SDS011;9202;51.578;7.734;2022-10-23T04:41:22;5.00;;;4.80;;
18152;SDS011;9202;51.578;7.734;2022-10-23T04:43:26;5.87;;;5.27;;
18152;SDS011;9202;51.578;7.734;2022-10-23T04:45:30;5.30;;;5.10;;
18152;SDS011;9202;51.578;7.734;2022-10-23T04:47:34;4.80;;;4.60;;
18152;SDS011;9202;51.578;7.734;2022-10-23T04:49:38;6.17;;;5.97;;
18152;SDS011;9202;51.578;7.734;2022-10-23T04:54:00;5.40;;;5.10;;
18152;SDS011;9202;51.578;7.734;2022-10-23T04:56:05;5.37;;;5.13;;
18152;SDS011;9202;51.578;7.734;2022-10-23T04:58:11;5.57;;;5.27;;
18152;SDS011;9202;51.578;7.734;2022-10-23T05:00:16;5.73;;;5.53;;
18152;SDS011;9202;51.578;7.734;2022-10-23T05:02:22;4.83;;;4.63;;
18152;SDS011;9202;51.578;7.734;2022-10-23T05:04:26;5.27;;;4.83;;
18152;SDS011;9202;51.578;7.734;2022-10-23T05:06:31;5.03;;;4.83;;
18152;SDS011;9202;51.578;7.734;2022-10-23T05:08:37;4.37;;;4.23;;
18152;SDS011;9202;51.578;7.734;2022-10-23T05:12:58;4.97;;;4.77;;
18152;SDS011;9202;51.578;7.734;2022-10-23T05:15:04;4.93;;;4.70;;
18152;SDS011;9202;51.578;7.734;2022-10-23T05:17:10;4.80;;;4.60;;
18152;SDS011;9202;51.578;7.734;2022-10-23T05:19:17;4.87;;;4.67;;
18152;SDS011;9202;51.578;7.734;2022-10-23T05:21:26;6.80;;;4.77;;
18152;SDS011;9202;51.578;7.734;2022-10-23T05:23:33;5.03;;;4.83;;
18152;SDS011;9202;51.578;7.734;2022-10-23T05:25:39;4.47;;;4.27;;
18152;SDS011;9202;51.578;7.734;2022-10-23T05:27:45;4.53;;;4.33;;
18152;SDS011;9202;51.578;7.734;2022-10-23T05:30:01;4.70;;;4.50;;
18152;SDS011;9202;51.578;7.734;2022-10-23T05:32:08;4.70;;;4.50;;
18152;SDS011;9202;51.578;7.734;2022-10-23T05:34:14;5.33;;;5.13;;
18152;SDS011;9202;51.578;7.734;2022-10-23T05:36:20;6.03;;;5.80;;
18152;SDS011;9202;51.578;7.734;2022-10-23T05:38:27;5.70;;;5.50;;
18152;SDS011;9202;51.578;7.734;2022-10-23T05:40:35;4.73;;;4.53;;
18152;SDS011;9202;51.578;7.734;2022-10-23T05:42:40;4.80;;;4.60;;
18152;SDS011;9202;51.578;7.734;2022-10-23T05:44:57;4.83;;;4.63;;
18152;SDS011;9202;51.578;7.734;2022-10-23T05:47:02;4.50;;;4.30;;
18152;SDS011;9202;51.578;7.734;2022-10-23T05:49:08;6.00;;;5.70;;
18152;SDS011;9202;51.578;7.734;2022-10-23T05:51:13;5.43;;;5.23;;
18152;SDS011;9202;51.578;7.734;2022-10-23T05:53:20;5.37;;;4.97;;
18152;SDS011;9202;51.578;7.734;2022-10-23T05:55:26;5.10;;;4.90;;
18152;SDS011;9202;51.578;7.734;2022-10-23T05:57:31;5.57;;;5.27;;
18152;SDS011;9202;51.578;7.734;2022-10-23T05:59:37;4.60;;;4.50;;
18152;SDS011;9202;51.578;7.734;2022-10-23T06:01:53;4.97;;;4.77;;
18152;SDS011;9202;51.578;7.734;2022-10-23T06:03:59;4.83;;;4.63;;
18152;SDS011;9202;51.578;7.734;2022-10-23T06:06:06;4.43;;;4.23;;
18152;SDS011;9202;51.578;7.734;2022-10-23T06:08:11;4.93;;;4.73;;
18152;SDS011;9202;51.578;7.734;2022-10-23T06:10:15;5.13;;;4.93;;
18152;SDS011;9202;51.578;7.734;2022-10-23T06:12:20;4.67;;;4.30;;
18152;SDS011;9202;51.578;7.734;2022-10-23T06:14:24;4.57;;;4.47;;
18152;SDS011;9202;51.578;7.734;2022-10-23T06:16:28;28.87;;;6.80;;
18152;SDS011;9202;51.578;7.734;2022-10-23T06:18:32;4.53;;;4.33;;
18152;SDS011;9202;51.578;7.734;2022-10-23T06:20:37;5.43;;;5.03;;
18152;SDS011;9202;51.578;7.734;2022-10-23T06:22:43;4.93;;;4.73;;
18152;SDS011;9202;51.578;7.734;2022-10-23T06:24:49;5.77;;;5.37;;
18152;SDS011;9202;51.578;7.734;2022-10-23T06:26:54;5.13;;;4.73;;
18152;SDS011;9202;51.578;7.734;2022-10-23T06:28:59;5.10;;;4.80;;
18152;SDS011;9202;51.578;7.734;2022-10-23T06:31:04;5.17;;;4.97;;
18152;SDS011;9202;51.578;7.734;2022-10-23T06:33:09;4.40;;;4.10;;
18152;SDS011;9202;51.578;7.734;2022-10-23T06:35:12;4.37;;;4.17;;
18152;SDS011;9202;51.578;7.734;2022-10-23T06:37:16;4.83;;;4.57;;
18152;SDS011;9202;51.578;7.734;2022-10-23T06:39:21;12.77;;;5.67;;
18152;SDS011;9202;51.578;7.734;2022-10-23T06:41:28;5.90;;;5.60;;
18152;SDS011;9202;51.578;7.734;2022-10-23T06:43:32;3.93;;;3.73;;
18152;SDS011;9202;51.578;7.734;2022-10-23T06:45:37;3.60;;;3.50;;
18152;SDS011;9202;51.578;7.734;2022-10-23T06:47:43;3.30;;;3.20;;
18152;SDS011;9202;51.578;7.734;2022-10-23T06:49:48;3.00;;;2.90;;
18152;SDS011;9202;51.578;7.734;2022-10-23T06:51:52;3.87;;;3.67;;
18152;SDS011;9202;51.578;7.734;2022-10-23T06:53:56;6.33;;;4.60;;
18152;SDS011;9202;51.578;7.734;2022-10-23T06:56:01;4.03;;;3.80;;
18152;SDS011;9202;51.578;7.734;2022-10-23T06:58:07;4.27;;;3.97;;
18152;SDS011;9202;51.578;7.734;2022-10-23T07:00:13;3.50;;;3.30;;
18152;SDS011;9202;51.578;7.734;2022-10-23T07:02:19;3.70;;;3.50;;
18152;SDS011;9202;51.578;7.734;2022-10-23T07:04:23;3.20;;;3.07;;
18152;SDS011;9202;51.578;7.734;2022-10-23T07:06:27;3.87;;;3.57;;
18152;SDS011;9202;51.578;7.734;2022-10-23T07:08:32;2.80;;;2.70;;
18152;SDS011;9202;51.578;7.734;2022-10-23T07:10:37;3.10;;;3.00;;
18152;SDS011;9202;51.578;7.734;2022-10-23T07:12:43;3.00;;;2.90;;
18152;SDS011;9202;51.578;7.734;2022-10-23T07:14:50;3.17;;;3.07;;
18152;SDS011;9202;51.578;7.734;2022-10-23T07:16:53;3.13;;;2.80;;
18152;SDS011;9202;51.578;7.734;2022-10-23T07:18:59;3.23;;;3.03;;
18152;SDS011;9202;51.578;7.734;2022-10-23T07:21:02;3.37;;;3.07;;
18152;SDS011;9202;51.578;7.734;2022-10-23T07:25:24;3.13;;;2.93;;
18152;SDS011;9202;51.578;7.734;2022-10-23T07:27:28;3.93;;;3.63;;
18152;SDS011;9202;51.578;7.734;2022-10-23T07:29:33;3.20;;;3.10;;
18152;SDS011;9202;51.578;7.734;2022-10-23T07:31:38;3.67;;;3.37;;
18152;SDS011;9202;51.578;7.734;2022-10-23T07:33:43;2.93;;;2.80;;
18152;SDS011;9202;51.578;7.734;2022-10-23T07:35:48;2.53;;;2.40;;
18152;SDS011;9202;51.578;7.734;2022-10-23T07:37:54;2.97;;;2.77;;
18152;SDS011;9202;51.578;7.734;2022-10-23T07:40:19;3.03;;;2.93;;
18152;SDS011;9202;51.578;7.734;2022-10-23T07:42:24;2.80;;;2.70;;
18152;SDS011;9202;51.578;7.734;2022-10-23T07:44:27;2.33;;;2.23;;
18152;SDS011;9202;51.578;7.734;2022-10-23T07:46:31;2.57;;;2.47;;
18152;SDS011;9202;51.578;7.734;2022-10-23T07:48:35;2.77;;;2.67;;
18152;SDS011;9202;51.578;7.734;2022-10-23T07:50:39;2.37;;;2.20;;
18152;SDS011;9202;51.578;7.734;2022-10-23T07:52:42;15.17;;;3.87;;
18152;SDS011;9202;51.578;7.734;2022-10-23T07:54:50;2.13;;;2.03;;
18152;SDS011;9202;51.578;7.734;2022-10-23T07:59:14;2.57;;;2.40;;
18152;SDS011;9202;51.578;7.734;2022-10-23T08:01:22;2.40;;;2.30;;
18152;SDS011;9202;51.578;7.734;2022-10-23T08:03:27;2.47;;;2.37;;
18152;SDS011;9202;51.578;7.734;2022-10-23T08:05:33;2.70;;;2.60;;
18152;SDS011;9202;51.578;7.734;2022-10-23T08:07:37;4.27;;;2.57;;
18152;SDS011;9202;51.578;7.734;2022-10-23T08:09:41;2.63;;;2.53;;
18152;SDS011;9202;51.578;7.734;2022-10-23T08:11:44;2.83;;;2.73;;
18152;SDS011;9202;51.578;7.734;2022-10-23T08:13:50;2.80;;;2.70;;
18152;SDS011;9202;51.578;7.734;2022-10-23T08:16:07;2.60;;;2.50;;
18152;SDS011;9202;51.578;7.734;2022-10-23T08:18:13;4.70;;;3.03;;
18152;SDS011;9202;51.578;7.734;2022-10-23T08:20:19;2.80;;;2.70;;
18152;SDS011;9202;51.578;7.734;2022-10-23T08:22:23;2.83;;;2.73;;
18152;SDS011;9202;51.578;7.734;2022-10-23T08:24:26;2.70;;;2.60;;
18152;SDS011;9202;51.578;7.734;2022-10-23T08:26:30;4.17;;;2.87;;
18152;SDS011;9202;51.578;7.734;2022-10-23T08:28:34;2.87;;;2.77;;
18152;SDS011;9202;51.578;7.734;2022-10-23T08:30:38;3.03;;;2.93;;
18152;SDS011;9202;51.578;7.734;2022-10-23T08:32:41;3.60;;;3.33;;
18152;SDS011;9202;51.578;7.734;2022-10-23T08:34:46;2.90;;;2.80;;
18152;SDS011;9202;51.578;7.734;2022-10-23T08:36:50;3.10;;;3.00;;
18152;SDS011;9202;51.578;7.734;2022-10-23T08:39:08;2.63;;;2.53;;
18152;SDS011;9202;51.578;7.734;2022-10-23T08:41:18;3.07;;;2.90;;
18152;SDS011;9202;51.578;7.734;2022-10-23T08:43:31;2.93;;;2.83;;
18152;SDS011;9202;51.578;7.734;2022-10-23T08:45:39;2.77;;;2.67;;
18152;SDS011;9202;51.578;7.734;2022-10-23T08:47:48;2.83;;;2.73;;
18152;SDS011;9202;51.578;7.734;2022-10-23T08:50:09;2.50;;;2.40;;
18152;SDS011;9202;51.578;7.734;2022-10-23T08:52:18;2.97;;;2.87;;
18152;SDS011;9202;51.578;7.734;2022-10-23T08:54:24;2.77;;;2.67;;
18152;SDS011;9202;51.578;7.734;2022-10-23T08:56:31;10.27;;;3.87;;
18152;SDS011;9202;51.578;7.734;2022-10-23T08:58:37;3.13;;;2.97;;
18152;SDS011;9202;51.578;7.734;2022-10-23T09:00:46;2.80;;;2.70;;
18152;SDS011;9202;51.578;7.734;2022-10-23T09:02:51;2.40;;;2.30;;
18152;SDS011;9202;51.578;7.734;2022-10-23T09:04:56;2.90;;;2.77;;
18152;SDS011;9202;51.578;7.734;2022-10-23T09:07:01;2.30;;;2.20;;
18152;SDS011;9202;51.578;7.734;2022-10-23T09:09:13;2.10;;;2.10;;
18152;SDS011;9202;51.578;7.734;2022-10-23T09:11:22;2.50;;;2.40;;
18152;SDS011;9202;51.578;7.734;2022-10-23T09:13:35;2.43;;;2.33;;
18152;SDS011;9202;51.578;7.734;2022-10-23T09:15:44;4.80;;;2.30;;
18152;SDS011;9202;51.578;7.734;2022-10-23T09:18:06;2.53;;;2.43;;
18152;SDS011;9202;51.578;7.734;2022-10-23T09:20:17;2.63;;;2.53;;
18152;SDS011;9202;51.578;7.734;2022-10-23T09:22:22;3.00;;;2.90;;
18152;SDS011;9202;51.578;7.734;2022-10-23T09:24:25;2.53;;;2.43;;
18152;SDS011;9202;51.578;7.734;2022-10-23T09:26:31;12.53;;;3.70;;
18152;SDS011;9202;51.578;7.734;2022-10-23T09:28:35;12.27;;;4.00;;
18152;SDS011;9202;51.578;7.734;2022-10-23T09:30:42;3.27;;;3.17;;
18152;SDS011;9202;51.578;7.734;2022-10-23T09:32:45;2.90;;;2.80;;
18152;SDS011;9202;51.578;7.734;2022-10-23T09:34:50;4.03;;;3.83;;
18152;SDS011;9202;51.578;7.734;2022-10-23T09:36:55;5.03;;;4.63;;
18152;SDS011;9202;51.578;7.734;2022-10-23T09:39:00;5.13;;;4.77;;
18152;SDS011;9202;51.578;7.734;2022-10-23T09:41:18;3.97;;;3.80;;
18152;SDS011;9202;51.578;7.734;2022-10-23T09:43:23;3.57;;;3.47;;
18152;SDS011;9202;51.578;7.734;2022-10-23T09:45:31;4.57;;;4.37;;
18152;SDS011;9202;51.578;7.734;2022-10-23T09:47:37;5.37;;;5.17;;
18152;SDS011;9202;51.578;7.734;2022-10-23T09:49:45;7.13;;;6.83;;
18152;SDS011;9202;51.578;7.734;2022-10-23T09:51:52;8.60;;;7.97;;
18152;SDS011;9202;51.578;7.734;2022-10-23T09:53:58;8.07;;;7.73;;
18152;SDS011;9202;51.578;7.734;2022-10-23T09:56:24;6.47;;;6.17;;
18152;SDS011;9202;51.578;7.734;2022-10-23T09:58:30;6.07;;;5.87;;
18152;SDS011;9202;51.578;7.734;2022-10-23T10:00:44;8.13;;;7.83;;
18152;SDS011;9202;51.578;7.734;2022-10-23T10:02:52;9.47;;;8.93;;
18152;SDS011;9202;51.578;7.734;2022-10-23T10:05:21;9.87;;;9.47;;
18152;SDS011;9202;51.578;7.734;2022-10-23T10:07:27;6.77;;;6.23;;
18152;SDS011;9202;51.578;7.734;2022-10-23T10:09:33;6.90;;;6.60;;
18152;SDS011;9202;51.578;7.734;2022-10-23T10:11:38;14.40;;;13.47;;
18152;SDS011;9202;51.578;7.734;2022-10-23T10:13:49;8.67;;;8.17;;
18152;SDS011;9202;51.578;7.734;2022-10-23T10:16:17;11.57;;;10.87;;
18152;SDS011;9202;51.578;7.734;2022-10-23T10:18:24;9.43;;;9.03;;
18152;SDS011;9202;51.578;7.734;2022-10-23T10:20:37;9.07;;;8.77;;
18152;SDS011;9202;51.578;7.734;2022-10-23T10:23:04;6.70;;;6.40;;
18152;SDS011;9202;51.578;7.734;2022-10-23T10:25:11;7.97;;;7.67;;
18152;SDS011;9202;51.578;7.734;2022-10-23T10:27:20;10.23;;;9.60;;
18152;SDS011;9202;51.578;7.734;2022-10-23T10:29:35;12.27;;;11.57;;
18152;SDS011;9202;51.578;7.734;2022-10-23T10:31:47;15.73;;;14.83;;
18152;SDS011;9202;51.578;7.734;2022-10-23T10:33:58;12.43;;;11.73;;
18152;SDS011;9202;51.578;7.734;2022-10-23T10:36:23;18.00;;;17.20;;
18152;SDS011;9202;51.578;7.734;2022-10-23T10:38:34;18.07;;;17.17;;
18152;SDS011;9202;51.578;7.734;2022-10-23T10:40:55;14.93;;;14.17;;
18152;SDS011;9202;51.578;7.734;2022-10-23T10:43:08;8.60;;;7.97;;
18152;SDS011;9202;51.578;7.734;2022-10-23T10:45:27;14.47;;;13.77;;
18152;SDS011;9202;51.578;7.734;2022-10-23T10:47:53;11.20;;;10.63;;
18152;SDS011;9202;51.578;7.734;2022-10-23T10:52:24;13.80;;;13.20;;
18152;SDS011;9202;51.578;7.734;2022-10-23T10:54:34;16.10;;;15.40;;
18152;SDS011;9202;51.578;7.734;2022-10-23T10:56:42;13.33;;;12.73;;
18152;SDS011;9202;51.578;7.734;2022-10-23T10:58:47;16.03;;;15.00;;
18152;SDS011;9202;51.578;7.734;2022-10-23T11:00:54;17.33;;;16.57;;
18152;SDS011;9202;51.578;7.734;2022-10-23T11:05:18;18.80;;;17.93;;
18152;SDS011;9202;51.578;7.734;2022-10-23T11:07:32;19.13;;;17.93;;
18152;SDS011;9202;51.578;7.734;2022-10-23T11:09:38;18.63;;;17.63;;
18152;SDS011;9202;51.578;7.734;2022-10-23T11:11:42;13.50;;;12.80;;
18152;SDS011;9202;51.578;7.734;2022-10-23T11:13:48;13.30;;;12.80;;
18152;SDS011;9202;51.578;7.734;2022-10-23T11:15:54;20.07;;;19.23;;
18152;SDS011;9202;51.578;7.734;2022-10-23T11:20:24;18.30;;;17.50;;
18152;SDS011;9202;51.578;7.734;2022-10-23T11:22:45;16.70;;;16.00;;
18152;SDS011;9202;51.578;7.734;2022-10-23T11:24:57;11.93;;;11.33;;
18152;SDS011;9202;51.578;7.734;2022-10-23T11:27:15;15.40;;;14.70;;
18152;SDS011;9202;51.578;7.734;2022-10-23T11:29:32;26.17;;;25.03;;
18152;SDS011;9202;51.578;7.734;2022-10-23T11:31:50;29.37;;;28.20;;
18152;SDS011;9202;51.578;7.734;2022-10-23T11:34:01;29.40;;;28.20;;
18152;SDS011;9202;51.578;7.734;2022-10-23T11:36:30;14.90;;;14.30;;
18152;SDS011;9202;51.578;7.734;2022-10-23T11:38:47;17.70;;;16.93;;
18152;SDS011;9202;51.578;7.734;2022-10-23T11:43:08;17.87;;;17.17;;
18152;SDS011;9202;51.578;7.734;2022-10-23T11:45:25;14.37;;;13.67;;
18152;SDS011;9202;51.578;7.734;2022-10-23T11:49:45;18.87;;;18.07;;
18152;SDS011;9202;51.578;7.734;2022-10-23T11:51:58;18.10;;;17.33;;
18152;SDS011;9202;51.578;7.734;2022-10-23T11:56:23;18.17;;;17.47;;
18152;SDS011;9202;51.578;7.734;2022-10-23T11:58:38;16.57;;;15.90;;
18152;SDS011;9202;51.578;7.734;2022-10-23T12:00:50;22.07;;;21.17;;
18152;SDS011;9202;51.578;7.734;2022-10-23T12:02:56;15.13;;;14.53;;
18152;SDS011;9202;51.578;7.734;2022-10-23T12:05:02;20.97;;;20.17;;
18152;SDS011;9202;51.578;7.734;2022-10-23T12:07:14;18.27;;;17.53;;
18152;SDS011;9202;51.578;7.734;2022-10-23T12:09:25;15.60;;;14.80;;
18152;SDS011;9202;51.578;7.734;2022-10-23T12:13:59;15.40;;;14.43;;
18152;SDS011;9202;51.578;7.734;2022-10-23T12:16:05;15.37;;;14.77;;
18152;SDS011;9202;51.578;7.734;2022-10-23T12:18:13;14.90;;;14.30;;
18152;SDS011;9202;51.578;7.734;2022-10-23T12:20:34;16.27;;;15.57;;
18152;SDS011;9202;51.578;7.734;2022-10-23T12:22:44;14.67;;;14.07;;
18152;SDS011;9202;51.578;7.734;2022-10-23T12:27:30;15.67;;;14.80;;
18152;SDS011;9202;51.578;7.734;2022-10-23T12:29:42;14.17;;;13.57;;
18152;SDS011;9202;51.578;7.734;2022-10-23T12:31:58;15.93;;;15.30;;
18152;SDS011;9202;51.578;7.734;2022-10-23T12:34:08;15.63;;;14.97;;
18152;SDS011;9202;51.578;7.734;2022-10-23T12:36:37;15.47;;;14.60;;
18152;SDS011;9202;51.578;7.734;2022-10-23T12:38:47;14.63;;;13.67;;
18152;SDS011;9202;51.578;7.734;2022-10-23T12:40:51;12.13;;;11.63;;
18152;SDS011;9202;51.578;7.734;2022-10-23T12:42:58;15.33;;;14.67;;
18152;SDS011;9202;51.578;7.734;2022-10-23T12:45:02;20.83;;;20.00;;
18152;SDS011;9202;51.578;7.734;2022-10-23T12:49:27;13.53;;;13.00;;
18152;SDS011;9202;51.578;7.734;2022-10-23T12:51:34;13.60;;;13.00;;
18152;SDS011;9202;51.578;7.734;2022-10-23T12:53:37;13.20;;;12.70;;
18152;SDS011;9202;51.578;7.734;2022-10-23T12:55:45;13.40;;;12.90;;
18152;SDS011;9202;51.578;7.734;2022-10-23T12:57:52;13.40;;;12.60;;
18152;SDS011;9202;51.578;7.734;2022-10-23T13:00:14;18.83;;;17.93;;
18152;SDS011;9202;51.578;7.734;2022-10-23T13:02:21;16.30;;;15.70;;
18152;SDS011;9202;51.578;7.734;2022-10-23T13:04:27;21.07;;;20.00;;
18152;SDS011;9202;51.578;7.734;2022-10-23T13:06:32;11.67;;;11.10;;
18152;SDS011;9202;51.578;7.734;2022-10-23T13:08:37;25.70;;;24.67;;
18152;SDS011;9202;51.578;7.734;2022-10-23T13:10:44;19.77;;;18.80;;
18152;SDS011;9202;51.578;7.734;2022-10-23T13:12:51;20.90;;;20.10;;
18152;SDS011;9202;51.578;7.734;2022-10-23T13:17:13;10.60;;;10.20;;
18152;SDS011;9202;51.578;7.734;2022-10-23T13:19:22;16.97;;;16.27;;
18152;SDS011;9202;51.578;7.734;2022-10-23T13:21:29;18.40;;;17.63;;
18152;SDS011;9202;51.578;7.734;2022-10-23T13:23:34;11.90;;;11.30;;
18152;SDS011;9202;51.578;7.734;2022-10-23T13:25:38;26.77;;;25.67;;
18152;SDS011;9202;51.578;7.734;2022-10-23T13:27:42;13.53;;;12.93;;
18152;SDS011;9202;51.578;7.734;2022-10-23T13:29:46;15.07;;;14.27;;
18152;SDS011;9202;51.578;7.734;2022-10-23T13:31:50;14.83;;;14.23;;
18152;SDS011;9202;51.578;7.734;2022-10-23T13:34:04;14.97;;;14.17;;
18152;SDS011;9202;51.578;7.734;2022-10-23T13:36:20;13.93;;;13.37;;
18152;SDS011;9202;51.578;7.734;2022-10-23T13:38:29;16.17;;;15.47;;